Time;durP1;ratioP1;P1;durP2;ratioP2;P2;SDS_P1;SDS_P2;PMS_P1;PMS_P2;Temp;Humidity;BMP_temperature;BMP_pressure;BME280_temperature;BME280_humidity;BME280_pressure;Samples;Min_cycle;Max_cycle;Signal;HPM_P1;HPM_P2
2022/06/24 04:01:16;;;;;;;3.97;3.87;;;20.30;99.90;;;;;;5570624;23;20536;-66
2022/06/24 04:03:43;;;;;;;4.43;4.10;;;20.30;99.90;;;;;;4973761;28;20944;-67
2022/06/24 04:06:09;;;;;;;4.50;4.37;;;20.30;99.90;;;;;;4974539;28;20490;-66
2022/06/24 04:08:36;;;;;;;4.33;4.10;;;20.40;99.90;;;;;;4966119;28;20841;-66
2022/06/24 04:11:09;;;;;;;4.90;4.60;;;20.40;99.90;;;;;;4954698;28;20485;-69
2022/06/24 04:13:36;;;;;;;5.07;4.83;;;20.40;99.90;;;;;;4954333;28;20836;-69
2022/06/24 04:16:03;;;;;;;5.00;4.70;;;20.40;99.90;;;;;;4955471;28;20892;-69
2022/06/24 04:18:31;;;;;;;4.90;4.70;;;20.50;99.90;;;;;;4954365;28;20465;-69
2022/06/24 04:20:58;;;;;;;4.90;4.70;;;20.50;99.90;;;;;;4954532;28;20485;-69
2022/06/24 04:23:25;;;;;;;4.93;4.73;;;20.60;99.90;;;;;;4954798;28;20843;-66
2022/06/24 04:25:52;;;;;;;4.10;4.00;;;20.90;99.90;;;;;;4954755;28;20468;-66
2022/06/24 04:28:19;;;;;;;4.00;3.90;;;21.50;99.90;;;;;;4954073;28;20461;-69
2022/06/24 04:30:45;;;;;;;4.63;4.50;;;22.00;99.90;;;;;;4953155;28;20489;-67
2022/06/24 04:33:12;;;;;;;4.30;4.20;;;22.50;99.90;;;;;;4954271;28;20843;-67
2022/06/24 04:35:42;;;;;;;4.73;3.83;;;23.00;99.90;;;;;;4954834;28;20492;-69
2022/06/24 04:38:08;;;;;;;3.80;3.50;;;23.20;99.90;;;;;;4954733;28;20467;-69
2022/06/24 04:40:35;;;;;;;4.30;3.97;;;23.60;99.90;;;;;;4954592;28;20945;-66
2022/06/24 04:43:02;;;;;;;5.00;4.70;;;23.90;99.90;;;;;;4954030;28;20847;-67
2022/06/24 04:45:29;;;;;;;4.13;4.03;;;24.30;99.90;;;;;;4954832;28;20461;-67
2022/06/24 04:47:56;;;;;;;4.60;4.30;;;24.50;99.90;;;;;;4954480;28;20465;-68
2022/06/24 04:50:23;;;;;;;4.00;3.90;;;24.70;99.90;;;;;;4954442;28;20471;-68
2022/06/24 04:52:51;;;;;;;4.37;4.27;;;24.90;99.90;;;;;;4954601;28;20461;-68
2022/06/24 04:55:17;;;;;;;4.47;4.17;;;25.20;99.90;;;;;;4954282;28;20881;-68
2022/06/24 04:57:44;;;;;;;3.90;3.80;;;25.50;99.90;;;;;;4957417;28;20946;-68
2022/06/24 05:00:12;;;;;;;4.80;4.33;;;25.50;99.90;;;;;;4958228;28;20461;-68
2022/06/24 05:02:41;;;;;;;4.33;4.13;;;25.20;99.90;;;;;;4954337;28;20942;-68
2022/06/24 05:05:08;;;;;;;4.50;4.30;;;25.10;99.90;;;;;;4955591;28;20457;-67
2022/06/24 05:07:35;;;;;;;4.50;4.33;;;25.00;99.90;;;;;;4956998;28;20465;-68
2022/06/24 05:10:04;;;;;;;4.40;4.10;;;24.90;99.90;;;;;;4959502;28;20465;-68
2022/06/24 05:12:31;;;;;;;4.00;3.90;;;24.70;99.90;;;;;;4956475;28;20494;-68
2022/06/24 05:14:58;;;;;;;5.00;4.87;;;24.50;99.90;;;;;;4954731;28;20500;-68
2022/06/24 05:17:26;;;;;;;5.17;4.83;;;24.40;99.90;;;;;;4954135;28;20472;-68
2022/06/24 05:19:53;;;;;;;4.67;4.47;;;24.10;99.90;;;;;;4953948;28;20828;-68
2022/06/24 05:22:20;;;;;;;5.10;4.90;;;23.90;99.90;;;;;;4953904;28;20492;-68
2022/06/24 05:24:46;;;;;;;5.40;5.00;;;23.70;99.90;;;;;;4953657;28;20857;-68
2022/06/24 05:27:14;;;;;;;4.60;4.43;;;23.80;99.90;;;;;;4953706;28;20861;-68
2022/06/24 05:29:41;;;;;;;4.50;4.27;;;24.40;99.90;;;;;;4953652;28;20532;-68
2022/06/24 05:32:08;;;;;;;5.17;4.70;;;24.90;99.90;;;;;;4954108;28;20484;-68
2022/06/24 05:34:35;;;;;;;5.30;5.10;;;25.50;99.90;;;;;;4953249;28;21012;-68
2022/06/24 05:37:02;;;;;;;5.20;4.83;;;26.00;99.90;;;;;;4953804;28;20472;-68
2022/06/24 05:39:28;;;;;;;4.83;4.63;;;26.10;99.90;;;;;;4954115;28;20528;-67
2022/06/24 05:41:55;;;;;;;4.87;4.67;;;26.20;99.90;;;;;;4952819;28;20497;-67
2022/06/24 05:44:23;;;;;;;4.63;4.43;;;26.50;99.90;;;;;;4953734;28;20471;-67
2022/06/24 05:46:51;;;;;;;4.10;3.90;;;27.20;99.90;;;;;;4954202;28;20466;-68
2022/06/24 05:49:18;;;;;;;4.40;4.30;;;27.70;99.10;;;;;;4960907;28;20463;-67
2022/06/24 05:51:45;;;;;;;4.63;4.37;;;28.20;96.90;;;;;;4972300;28;20506;-67
2022/06/24 05:56:56;;;;;;;4.40;4.20;;;28.20;95.20;;;;;;4972398;28;20449;-67
2022/06/24 05:59:24;;;;;;;4.97;4.87;;;28.20;94.30;;;;;;4972616;28;20477;-66
2022/06/24 06:01:50;;;;;;;4.73;4.50;;;27.90;94.30;;;;;;4972288;28;20551;-67
2022/06/24 06:04:17;;;;;;;4.57;4.27;;;27.90;94.60;;;;;;4972033;28;20779;-67
2022/06/24 06:06:45;;;;;;;4.93;4.73;;;28.20;93.80;;;;;;4972842;28;20468;-68
2022/06/24 06:09:12;;;;;;;4.20;4.13;;;28.50;93.60;;;;;;4972562;28;20572;-68
2022/06/24 06:11:39;;;;;;;4.93;4.73;;;28.50;92.90;;;;;;4972017;28;20484;-68
2022/06/24 06:14:05;;;;;;;4.80;4.70;;;28.80;92.80;;;;;;4971743;28;20952;-67
2022/06/24 06:16:34;;;;;;;4.90;4.70;;;29.10;92.30;;;;;;4972516;28;20474;-67
2022/06/24 06:19:01;;;;;;;6.03;5.10;;;29.20;91.60;;;;;;4971834;28;20941;-67
2022/06/24 06:21:28;;;;;;;4.97;4.77;;;28.70;91.60;;;;;;4972491;28;20482;-67
2022/06/24 06:23:54;;;;;;;5.43;5.13;;;28.80;91.80;;;;;;4972171;28;20839;-67
2022/06/24 06:26:21;;;;;;;4.07;3.97;;;29.00;91.00;;;;;;4972364;28;20464;-67
2022/06/24 06:28:48;;;;;;;5.27;4.97;;;29.00;90.50;;;;;;4971847;28;20478;-68
2022/06/24 06:31:14;;;;;;;5.00;4.70;;;29.00;90.30;;;;;;4971889;28;20489;-68
2022/06/24 06:33:42;;;;;;;4.90;4.70;;;29.40;90.20;;;;;;4971779;28;20469;-68
2022/06/24 06:36:11;;;;;;;4.90;4.60;;;29.60;90.00;;;;;;4969512;28;20499;-68
2022/06/24 06:38:38;;;;;;;5.20;5.00;;;29.60;88.70;;;;;;4968489;28;20458;-68
2022/06/24 06:41:05;;;;;;;4.13;3.93;;;29.20;89.00;;;;;;4952741;28;20491;-68
2022/06/24 06:43:32;;;;;;;4.90;4.70;;;29.00;90.20;;;;;;4952599;28;20477;-68
2022/06/24 06:45:59;;;;;;;5.20;5.00;;;29.10;90.20;;;;;;4952578;28;20461;-68
2022/06/24 06:48:26;;;;;;;4.43;4.33;;;29.60;89.00;;;;;;4952248;28;20473;-68
2022/06/24 06:50:58;;;;;;;4.87;4.50;;;29.70;88.00;;;;;;4952669;28;20492;-67
2022/06/24 06:53:26;;;;;;;4.43;4.23;;;30.30;88.00;;;;;;4954504;28;20494;-67
2022/06/24 06:55:53;;;;;;;4.20;4.03;;;30.90;87.30;;;;;;4956875;28;20504;-67
2022/06/24 06:58:21;;;;;;;4.10;4.10;;;30.90;86.20;;;;;;4956110;28;20963;-67
2022/06/24 07:00:48;;;;;;;4.63;4.53;;;30.70;84.70;;;;;;4956386;28;20836;-67
2022/06/24 07:03:15;;;;;;;4.60;4.50;;;29.70;86.20;;;;;;4956217;28;20475;-67
2022/06/24 07:05:43;;;;;;;5.07;4.93;;;29.40;87.80;;;;;;4956487;28;20466;-68
2022/06/24 07:08:12;;;;;;;5.07;4.83;;;29.50;88.70;;;;;;4956442;28;20550;-68
2022/06/24 07:10:39;;;;;;;4.70;4.60;;;30.00;87.50;;;;;;4972038;28;20494;-67
2022/06/24 07:13:06;;;;;;;4.60;4.40;;;30.10;87.10;;;;;;4955730;28;20478;-67
2022/06/24 07:15:33;;;;;;;5.27;4.90;;;30.70;86.60;;;;;;4956407;28;20495;-67
2022/06/24 07:18:00;;;;;;;4.47;4.17;;;30.70;85.10;;;;;;4955678;28;20468;-68
2022/06/24 07:20:27;;;;;;;5.30;5.10;;;30.50;85.00;;;;;;4956211;28;20845;-67
2022/06/24 07:22:53;;;;;;;4.10;4.00;;;30.10;84.00;;;;;;4956261;28;20466;-68
2022/06/24 07:25:21;;;;;;;4.90;4.70;;;30.10;85.60;;;;;;4955948;28;20459;-67
2022/06/24 07:27:49;;;;;;;5.10;4.90;;;30.00;85.10;;;;;;4955725;28;20465;-68
2022/06/24 07:30:15;;;;;;;4.23;4.23;;;30.20;85.30;;;;;;4955990;28;20837;-68
2022/06/24 07:32:42;;;;;;;5.00;4.80;;;30.70;83.70;;;;;;4956196;28;20854;-68
2022/06/24 07:35:10;;;;;;;5.03;4.90;;;30.60;84.10;;;;;;4955653;28;20491;-67
2022/06/24 07:37:36;;;;;;;4.87;4.77;;;30.40;83.50;;;;;;4955959;28;20475;-68
2022/06/24 07:40:04;;;;;;;5.63;5.43;;;29.80;84.00;;;;;;4955487;28;20465;-68
2022/06/24 07:42:32;;;;;;;4.90;4.80;;;29.90;85.80;;;;;;4955539;28;20494;-67
2022/06/24 07:44:59;;;;;;;5.37;4.97;;;30.20;84.50;;;;;;4955921;28;20467;-67
2022/06/24 07:47:25;;;;;;;5.23;4.87;;;30.40;85.20;;;;;;4955706;28;20465;-67
2022/06/24 07:49:52;;;;;;;5.50;5.17;;;30.40;84.40;;;;;;4960000;28;20494;-68
2022/06/24 07:52:19;;;;;;;5.20;5.10;;;30.90;84.20;;;;;;4974847;28;20493;-68
2022/06/24 07:54:45;;;;;;;5.00;4.80;;;31.10;82.50;;;;;;4974493;28;20491;-68
2022/06/24 07:57:11;;;;;;;4.77;4.67;;;31.50;82.50;;;;;;4974474;28;20934;-68
2022/06/24 07:59:40;;;;;;;7.93;7.53;;;32.00;82.00;;;;;;4974887;28;20471;-65
2022/06/24 08:02:08;;;;;;;4.60;4.60;;;32.40;80.30;;;;;;4974668;28;20244;-67
2022/06/24 08:04:35;;;;;;;5.30;5.00;;;32.30;79.70;;;;;;4974023;28;20471;-67
2022/06/24 08:07:04;;;;;;;4.97;4.87;;;32.10;79.60;;;;;;4974546;28;20467;-67
2022/06/24 08:09:32;;;;;;;5.20;5.10;;;32.20;79.70;;;;;;4974815;28;20471;-67
2022/06/24 08:12:00;;;;;;;4.63;4.53;;;32.20;79.60;;;;;;4973957;28;20486;-67
2022/06/24 08:14:26;;;;;;;5.47;5.30;;;32.30;79.10;;;;;;4974807;28;20523;-68
2022/06/24 08:16:55;;;;;;;5.07;4.90;;;32.50;79.00;;;;;;4974566;28;20483;-68
2022/06/24 08:19:22;;;;;;;5.20;5.10;;;33.00;79.10;;;;;;4974032;28;21004;-65
2022/06/24 08:21:49;;;;;;;5.13;5.03;;;33.60;77.60;;;;;;4974036;28;20484;-66
2022/06/24 08:24:15;;;;;;;5.10;4.93;;;33.70;75.80;;;;;;4974174;28;20468;-65
2022/06/24 08:26:42;;;;;;;5.43;5.10;;;33.80;75.60;;;;;;4974713;28;20487;-67
2022/06/24 08:29:11;;;;;;;4.87;4.73;;;33.60;75.00;;;;;;4974351;28;20467;-67
2022/06/24 08:31:37;;;;;;;4.60;4.60;;;33.60;75.70;;;;;;4974247;28;20484;-67
2022/06/24 08:34:05;;;;;;;5.53;5.20;;;33.70;75.20;;;;;;4973585;28;20960;-67
2022/06/24 08:36:32;;;;;;;5.73;5.50;;;33.20;73.30;;;;;;4970546;28;20500;-67
2022/06/24 08:38:59;;;;;;;5.20;5.00;;;33.20;75.30;;;;;;4973740;28;20988;-67
2022/06/24 08:41:27;;;;;;;5.50;5.27;;;33.40;74.10;;;;;;4974027;28;20494;-67
2022/06/24 08:43:56;;;;;;;5.90;5.60;;;32.90;74.50;;;;;;4973580;28;20482;-67
2022/06/24 08:46:25;;;;;;;5.93;5.63;;;32.90;75.20;;;;;;4974097;28;20464;-66
2022/06/24 08:48:58;;;;;;;5.60;5.20;;;33.00;74.60;;;;;;4973199;28;20467;-67
2022/06/24 08:51:27;;;;;;;5.57;5.37;;;33.10;74.70;;;;;;4973643;28;20495;-67
2022/06/24 08:53:56;;;;;;;5.40;5.30;;;33.30;73.70;;;;;;4973308;28;20467;-67
2022/06/24 08:56:23;;;;;;;5.43;5.27;;;33.40;73.50;;;;;;4973904;28;20488;-67
2022/06/24 08:58:50;;;;;;;6.17;5.90;;;33.60;73.90;;;;;;4973133;28;20515;-67
2022/06/24 09:01:17;;;;;;;5.10;5.00;;;33.60;73.00;;;;;;4973420;28;20495;-67
2022/06/24 09:03:44;;;;;;;4.80;4.80;;;33.50;74.30;;;;;;4973220;28;20472;-67
2022/06/24 09:06:12;;;;;;;5.30;5.20;;;33.20;73.80;;;;;;4973875;28;20813;-67
2022/06/24 09:08:45;;;;;;;5.20;5.10;;;33.00;73.70;;;;;;4965163;28;20469;-67
2022/06/24 09:11:11;;;;;;;5.67;5.57;;;32.90;74.30;;;;;;4961270;28;20490;-67
2022/06/24 09:13:43;;;;;;;6.50;6.03;;;32.70;75.20;;;;;;4973211;28;20856;-67
2022/06/24 09:16:11;;;;;;;5.57;5.47;;;32.70;74.70;;;;;;4972907;28;20551;-66
2022/06/24 09:18:39;;;;;;;5.90;5.80;;;32.80;74.40;;;;;;4973836;28;20491;-67
2022/06/24 09:21:06;;;;;;;5.53;5.33;;;32.80;74.20;;;;;;4975013;28;20480;-66
2022/06/24 09:23:33;;;;;;;5.77;5.57;;;32.70;74.10;;;;;;4975420;28;20479;-66
2022/06/24 09:26:02;;;;;;;5.83;5.63;;;32.60;74.50;;;;;;4978010;28;20463;-67
2022/06/24 09:28:30;;;;;;;6.00;5.80;;;32.70;75.20;;;;;;4977485;28;20464;-68
2022/06/24 09:31:02;;;;;;;6.23;6.00;;;32.70;73.80;;;;;;4975426;28;20494;-67
2022/06/24 09:33:35;;;;;;;5.60;5.50;;;32.80;74.60;;;;;;4973829;28;20502;-67
2022/06/24 09:36:04;;;;;;;6.27;6.07;;;32.70;73.70;;;;;;4973147;28;20499;-67
2022/06/24 09:38:30;;;;;;;6.50;6.13;;;32.60;74.70;;;;;;4972893;28;20475;-67
2022/06/24 09:41:04;;;;;;;6.43;6.07;;;32.40;74.80;;;;;;4972750;28;20517;-67
2022/06/24 09:43:31;;;;;;;6.43;6.23;;;32.20;74.90;;;;;;4972912;28;20471;-67
2022/06/24 09:45:59;;;;;;;7.13;6.70;;;32.00;75.50;;;;;;4973054;28;20458;-67
2022/06/24 09:48:28;;;;;;;6.83;6.17;;;32.00;76.10;;;;;;4972507;28;20463;-67
2022/06/24 09:50:57;;;;;;;6.70;6.37;;;31.80;76.00;;;;;;4972593;28;20591;-67
2022/06/24 09:53:25;;;;;;;7.33;6.50;;;31.80;76.30;;;;;;4972388;28;20507;-67
2022/06/24 09:55:53;;;;;;;7.20;6.90;;;32.00;76.00;;;;;;4972671;28;21073;-66
2022/06/24 09:58:22;;;;;;;6.87;6.57;;;32.00;75.60;;;;;;4969310;28;20478;-66
2022/06/24 10:00:49;;;;;;;6.20;6.00;;;31.90;76.40;;;;;;4953011;28;20496;-66
2022/06/24 10:03:16;;;;;;;6.43;6.13;;;31.70;75.90;;;;;;4952950;28;20839;-67
2022/06/24 10:05:45;;;;;;;7.10;6.83;;;31.40;76.10;;;;;;4953378;28;20461;-67
2022/06/24 10:08:14;;;;;;;6.57;6.33;;;31.10;76.70;;;;;;4953322;28;20462;-66
2022/06/24 10:10:45;;;;;;;6.33;6.03;;;31.00;77.70;;;;;;4952840;28;20498;-66
2022/06/24 10:13:22;;;;;;;7.00;6.80;;;31.10;78.70;;;;;;4952746;28;20831;-66
2022/06/24 10:15:51;;;;;;;6.70;6.50;;;31.30;78.40;;;;;;4953755;28;20589;-66
2022/06/24 10:18:20;;;;;;;7.73;7.23;;;31.50;78.30;;;;;;4952308;28;20533;-66
2022/06/24 10:20:49;;;;;;;7.73;7.37;;;31.70;77.90;;;;;;4952780;28;20860;-68
2022/06/24 10:23:43;;;;;;;7.00;6.70;;;32.00;78.00;;;;;;4953150;28;20565;-65
2022/06/24 10:26:12;;;;;;;6.97;6.67;;;32.20;77.10;;;;;;4953223;28;20463;-67
2022/06/24 10:29:17;;;;;;;7.43;6.93;;;32.20;75.80;;;;;;4952955;28;20468;-66
2022/06/24 10:31:58;;;;;;;7.40;6.83;;;32.30;76.90;;;;;;4950430;28;20486;-66
2022/06/24 10:34:33;;;;;;;6.70;6.50;;;32.30;78.00;;;;;;4952877;28;20491;-66
2022/06/24 10:37:06;;;;;;;6.80;6.40;;;32.30;76.90;;;;;;4964089;28;20511;-66
2022/06/24 10:39:34;;;;;;;6.93;6.63;;;32.20;75.70;;;;;;4977994;28;20473;-66
2022/06/24 10:42:01;;;;;;;7.20;6.90;;;32.10;77.70;;;;;;4979041;28;20505;-66
2022/06/24 10:44:30;;;;;;;7.30;7.00;;;32.00;78.00;;;;;;4976005;28;20472;-67
2022/06/24 10:47:27;;;;;;;6.97;6.77;;;32.00;77.60;;;;;;4974302;28;20473;-66
2022/06/24 10:50:18;;;;;;;7.93;7.53;;;32.20;77.50;;;;;;4974575;28;20471;-66
2022/06/24 10:53:02;;;;;;;7.57;7.07;;;32.40;77.60;;;;;;4973527;28;20469;-66
2022/06/24 10:55:35;;;;;;;8.00;6.53;;;32.40;76.20;;;;;;4973049;28;20559;-67
2022/06/24 10:58:05;;;;;;;7.17;6.80;;;32.20;75.40;;;;;;4971368;28;20490;-67
2022/06/24 11:00:51;;;;;;;7.40;7.10;;;32.20;74.90;;;;;;4971567;28;20978;-66
2022/06/24 11:03:24;;;;;;;6.83;6.53;;;32.00;75.40;;;;;;4971458;28;20637;-66
2022/06/24 11:05:52;;;;;;;8.00;7.50;;;32.00;76.40;;;;;;4971919;28;20464;-66
2022/06/24 11:08:20;;;;;;;7.20;6.90;;;32.10;76.60;;;;;;4971483;28;20469;-66
2022/06/24 11:10:48;;;;;;;6.70;6.40;;;32.20;75.10;;;;;;4971898;28;20487;-67
2022/06/24 11:13:16;;;;;;;6.70;6.50;;;32.10;73.30;;;;;;4971454;28;21053;-68
2022/06/24 11:15:45;;;;;;;6.53;6.27;;;32.00;72.90;;;;;;4972060;28;20839;-67
2022/06/24 11:18:14;;;;;;;6.90;6.60;;;32.10;73.50;;;;;;4971324;28;20954;-67
2022/06/24 11:20:45;;;;;;;6.77;6.57;;;32.30;73.40;;;;;;4971430;28;20825;-67
2022/06/24 11:23:14;;;;;;;6.27;6.00;;;32.20;72.30;;;;;;4972013;28;20478;-67
2022/06/24 11:25:46;;;;;;;7.30;6.90;;;32.10;72.30;;;;;;4971283;28;20826;-67
2022/06/24 11:28:24;;;;;;;7.00;6.70;;;32.00;73.50;;;;;;4961355;28;20468;-66
2022/06/24 11:30:52;;;;;;;6.47;6.07;;;31.90;73.20;;;;;;4955923;28;20491;-66
2022/06/24 11:33:19;;;;;;;6.30;6.00;;;31.80;71.60;;;;;;4955766;28;20499;-66
2022/06/24 11:35:48;;;;;;;6.87;6.67;;;31.50;71.80;;;;;;4955447;28;20469;-66
2022/06/24 11:38:17;;;;;;;6.50;6.20;;;31.70;73.50;;;;;;4954660;28;20917;-67
2022/06/24 11:40:44;;;;;;;6.70;6.20;;;31.80;70.80;;;;;;4955938;28;20488;-66
2022/06/24 11:43:12;;;;;;;5.97;5.77;;;31.80;70.70;;;;;;4955397;28;20530;-66
2022/06/24 11:45:40;;;;;;;5.60;5.40;;;31.70;70.60;;;;;;4956072;28;20475;-67
2022/06/24 11:48:10;;;;;;;5.70;5.30;;;31.80;70.40;;;;;;4955168;28;20468;-67
2022/06/24 11:50:37;;;;;;;5.73;5.43;;;31.90;68.80;;;;;;4955428;28;21052;-67
2022/06/24 11:53:08;;;;;;;5.73;5.53;;;31.80;69.40;;;;;;4955726;28;20467;-67
2022/06/24 11:55:36;;;;;;;5.37;5.17;;;31.60;70.90;;;;;;4956327;28;20962;-67
2022/06/24 11:58:06;;;;;;;5.97;5.83;;;31.30;71.00;;;;;;4966237;28;20486;-67
2022/06/24 12:00:34;;;;;;;5.63;5.47;;;31.10;71.70;;;;;;4977483;28;20576;-67
2022/06/24 12:03:03;;;;;;;6.07;5.87;;;31.00;70.90;;;;;;4978889;28;20474;-67
2022/06/24 12:05:32;;;;;;;5.80;5.50;;;30.90;71.80;;;;;;4977566;28;20467;-67
2022/06/24 12:08:00;;;;;;;6.87;6.30;;;30.90;72.40;;;;;;4974796;28;20488;-67
2022/06/24 12:10:28;;;;;;;6.57;6.20;;;30.80;73.20;;;;;;4974640;28;20475;-66
2022/06/24 12:13:00;;;;;;;7.33;6.93;;;30.50;74.70;;;;;;4974196;28;20463;-67
2022/06/24 12:15:34;;;;;;;10.50;7.23;;;30.30;80.90;;;;;;4974942;28;20466;-66
2022/06/24 12:18:01;;;;;;;7.97;7.40;;;30.10;85.00;;;;;;4974020;28;21043;-67
2022/06/24 12:20:30;;;;;;;6.40;6.10;;;30.00;87.10;;;;;;4974332;28;20495;-67
2022/06/24 12:23:15;;;;;;;7.27;5.63;;;29.60;87.80;;;;;;4974261;28;20468;-67
2022/06/24 12:25:43;;;;;;;5.70;5.30;;;29.20;88.60;;;;;;4974125;28;20948;-67
2022/06/24 12:28:18;;;;;;;6.10;5.60;;;29.00;90.60;;;;;;4973751;28;20468;-67
2022/06/24 12:30:56;;;;;;;5.30;5.10;;;29.00;90.70;;;;;;4974167;28;20513;-67
2022/06/24 12:33:24;;;;;;;6.47;6.17;;;28.60;91.40;;;;;;4973590;28;20556;-66
2022/06/24 12:36:08;;;;;;;6.57;6.27;;;28.50;92.30;;;;;;4974217;28;20560;-67
2022/06/24 12:38:36;;;;;;;5.97;5.57;;;28.40;93.00;;;;;;4973263;28;20864;-67
2022/06/24 12:41:08;;;;;;;5.40;5.10;;;28.30;93.30;;;;;;4973910;28;20485;-67
2022/06/24 12:43:35;;;;;;;5.80;5.47;;;28.40;93.40;;;;;;4973443;28;20493;-67
2022/06/24 12:46:05;;;;;;;6.53;6.17;;;28.40;93.10;;;;;;4973803;28;20489;-67
2022/06/24 12:51:25;;;;;;;6.00;5.70;;;28.60;93.60;;;;;;4947616;28;20474;-67
2022/06/24 12:53:54;;;;;;;5.77;5.57;;;28.70;93.40;;;;;;4973427;28;20458;-67
2022/06/24 12:56:22;;;;;;;5.73;5.17;;;28.50;93.40;;;;;;4973641;28;20497;-67
2022/06/24 12:58:51;;;;;;;4.67;4.50;;;28.40;94.00;;;;;;4973350;28;20466;-67
2022/06/24 13:01:18;;;;;;;5.60;4.97;;;28.40;94.40;;;;;;4973462;28;20856;-66
2022/06/24 13:03:45;;;;;;;5.73;5.43;;;28.50;94.60;;;;;;4973207;28;20819;-66
2022/06/24 13:06:12;;;;;;;5.20;5.00;;;28.60;94.40;;;;;;4973298;28;20473;-66
2022/06/24 13:08:38;;;;;;;5.03;4.73;;;28.70;94.00;;;;;;4973462;28;20478;-67
2022/06/24 13:11:05;;;;;;;4.10;4.00;;;28.70;93.30;;;;;;4973446;28;20502;-67
2022/06/24 13:13:35;;;;;;;4.70;4.40;;;28.60;93.20;;;;;;4973080;28;20513;-66
2022/06/24 13:16:01;;;;;;;4.60;3.80;;;28.50;93.40;;;;;;4973530;28;20471;-66
2022/06/24 13:18:28;;;;;;;4.10;4.00;;;28.50;93.60;;;;;;4972673;28;20495;-66
2022/06/24 13:20:55;;;;;;;4.30;4.10;;;28.40;93.90;;;;;;4972877;28;20488;-67
2022/06/24 13:23:22;;;;;;;4.23;4.13;;;28.20;94.30;;;;;;4973123;28;20463;-67
2022/06/24 13:25:48;;;;;;;4.07;3.93;;;28.10;95.00;;;;;;4970283;28;20478;-68
2022/06/24 13:28:15;;;;;;;3.90;3.80;;;28.00;95.20;;;;;;4952865;29;20463;-66
2022/06/24 13:30:43;;;;;;;4.30;4.10;;;28.00;95.50;;;;;;4973039;28;20493;-67
2022/06/24 13:33:10;;;;;;;4.23;3.93;;;27.90;95.50;;;;;;4972454;28;20477;-67
2022/06/24 13:35:37;;;;;;;3.60;3.50;;;27.80;96.10;;;;;;4973065;28;20470;-67
2022/06/24 13:38:03;;;;;;;4.13;3.80;;;27.80;96.50;;;;;;4972777;28;20518;-67
2022/06/24 13:40:30;;;;;;;3.77;3.60;;;27.70;96.50;;;;;;4972451;28;20472;-67
2022/06/24 13:42:57;;;;;;;3.67;3.37;;;27.70;97.20;;;;;;4972384;28;20567;-67
2022/06/24 13:45:24;;;;;;;3.63;3.53;;;27.50;97.50;;;;;;4972681;28;20469;-67
2022/06/24 13:47:52;;;;;;;4.03;3.83;;;27.40;98.00;;;;;;4972662;28;20470;-67
2022/06/24 13:50:19;;;;;;;3.30;3.20;;;27.40;98.40;;;;;;4972069;28;20464;-67
2022/06/24 13:52:45;;;;;;;5.03;4.53;;;27.40;98.40;;;;;;4972656;28;20464;-67
2022/06/24 13:55:12;;;;;;;5.20;4.17;;;27.40;99.00;;;;;;4972113;28;20476;-67
2022/06/24 13:57:39;;;;;;;4.30;4.00;;;27.40;99.10;;;;;;4969305;28;21022;-66
2022/06/24 14:00:07;;;;;;;4.07;3.80;;;27.30;99.50;;;;;;4972112;28;20957;-67
2022/06/24 14:02:34;;;;;;;3.93;3.83;;;27.10;99.90;;;;;;4971649;28;20492;-67
2022/06/24 14:05:02;;;;;;;4.30;4.03;;;26.80;99.90;;;;;;4972070;28;20564;-67
2022/06/24 14:07:29;;;;;;;4.70;4.40;;;26.80;99.90;;;;;;4971991;28;20476;-67
2022/06/24 14:09:55;;;;;;;5.50;4.97;;;26.70;99.90;;;;;;4971886;28;20472;-67
2022/06/24 14:12:22;;;;;;;4.37;4.10;;;26.50;99.90;;;;;;4971729;28;20494;-67
2022/06/24 14:14:49;;;;;;;4.60;4.40;;;26.50;99.90;;;;;;4972279;28;20468;-67
2022/06/24 14:17:15;;;;;;;4.70;4.37;;;26.30;99.90;;;;;;4972011;28;20488;-67
2022/06/24 14:19:42;;;;;;;4.83;4.63;;;26.10;99.90;;;;;;4971573;28;20467;-66
2022/06/24 14:22:10;;;;;;;5.20;4.87;;;25.80;99.90;;;;;;4971700;28;20484;-67
2022/06/24 14:24:36;;;;;;;5.70;5.50;;;25.50;99.90;;;;;;4971954;28;20495;-67
2022/06/24 14:27:04;;;;;;;5.20;5.10;;;25.30;99.90;;;;;;4971367;28;21050;-66
2022/06/24 14:29:31;;;;;;;6.27;5.90;;;25.10;99.90;;;;;;4971893;28;20216;-66
2022/06/24 14:31:59;;;;;;;5.80;5.37;;;25.00;99.90;;;;;;4971747;28;20491;-66
2022/06/24 14:34:26;;;;;;;5.97;5.57;;;24.70;99.90;;;;;;4971401;28;20464;-66
2022/06/24 14:36:53;;;;;;;6.77;6.27;;;24.40;99.90;;;;;;4971419;28;20494;-66
2022/06/24 14:42:06;;;;;;;9.03;8.33;;;24.00;99.90;;;;;;4971558;28;20490;-66
2022/06/24 14:44:33;;;;;;;8.73;8.03;;;23.90;99.90;;;;;;4971449;28;20468;-66
2022/06/24 14:47:00;;;;;;;8.77;8.07;;;23.90;99.90;;;;;;4966102;28;20460;-66
2022/06/24 14:49:27;;;;;;;8.77;7.97;;;24.00;99.90;;;;;;4969027;28;20471;-67
2022/06/24 14:51:54;;;;;;;8.20;7.50;;;24.00;99.90;;;;;;4971775;28;20493;-67
2022/06/24 14:54:22;;;;;;;7.10;6.40;;;24.20;99.90;;;;;;4971515;28;21004;-67
2022/06/24 14:56:49;;;;;;;6.10;5.70;;;24.30;99.90;;;;;;4971578;28;20491;-67
2022/06/24 14:59:16;;;;;;;4.53;4.40;;;24.30;99.90;;;;;;4971148;28;20475;-67
2022/06/24 15:01:43;;;;;;;4.97;4.77;;;24.50;99.90;;;;;;4971022;28;20503;-67
2022/06/24 15:04:09;;;;;;;4.40;4.30;;;24.60;99.90;;;;;;4970784;28;20467;-67
2022/06/24 15:06:36;;;;;;;4.00;3.80;;;24.70;99.90;;;;;;4971719;28;20835;-67
2022/06/24 15:09:03;;;;;;;3.80;3.70;;;24.80;99.90;;;;;;4971478;28;20470;-67
2022/06/24 15:11:32;;;;;;;4.30;4.10;;;24.90;99.90;;;;;;4970989;28;20490;-67
2022/06/24 15:13:58;;;;;;;4.17;4.00;;;25.10;99.90;;;;;;4972171;28;20566;-67
2022/06/24 15:16:25;;;;;;;3.83;3.70;;;25.10;99.90;;;;;;4975002;28;20482;-66
2022/06/24 15:18:52;;;;;;;3.70;3.60;;;25.10;99.90;;;;;;4974835;28;20494;-66
2022/06/24 15:21:18;;;;;;;4.03;3.93;;;24.90;99.90;;;;;;4975291;28;20487;-66
2022/06/24 15:23:45;;;;;;;3.80;3.60;;;24.70;99.90;;;;;;4975172;28;20460;-66
2022/06/24 15:26:12;;;;;;;3.30;3.10;;;24.80;99.90;;;;;;4970062;28;20472;-66
2022/06/24 15:28:40;;;;;;;3.17;3.07;;;24.90;99.90;;;;;;4955493;29;20484;-67
2022/06/24 15:31:07;;;;;;;3.10;3.00;;;25.00;99.90;;;;;;4955957;28;20988;-67
2022/06/24 15:33:33;;;;;;;2.97;2.87;;;25.20;99.90;;;;;;4955345;28;20483;-67
2022/06/24 15:36:00;;;;;;;2.97;2.73;;;25.50;99.90;;;;;;4956054;28;20472;-67
2022/06/24 15:38:27;;;;;;;3.40;3.20;;;25.60;99.90;;;;;;4955657;28;20492;-66
2022/06/24 15:40:54;;;;;;;2.53;2.50;;;25.70;99.90;;;;;;4955782;28;20488;-67
2022/06/24 15:43:20;;;;;;;2.67;2.60;;;25.70;99.90;;;;;;4955085;28;20969;-67
2022/06/24 15:45:50;;;;;;;2.70;2.70;;;25.60;99.90;;;;;;4955977;28;20475;-67
2022/06/24 15:48:17;;;;;;;2.60;2.60;;;25.50;99.90;;;;;;4955159;28;21117;-67
2022/06/24 15:50:44;;;;;;;2.57;2.47;;;25.50;99.90;;;;;;4955734;28;20491;-67
2022/06/24 15:53:11;;;;;;;2.90;2.90;;;25.60;99.90;;;;;;4955614;28;20495;-67
2022/06/24 15:55:37;;;;;;;3.57;3.40;;;26.00;99.90;;;;;;4955405;28;20471;-67
2022/06/24 15:58:04;;;;;;;2.30;2.20;;;26.00;99.90;;;;;;4960757;28;20825;-67
2022/06/24 16:00:31;;;;;;;2.73;2.63;;;26.10;99.90;;;;;;4973904;28;20475;-67
2022/06/24 16:02:59;;;;;;;2.07;2.07;;;26.30;99.90;;;;;;4974654;28;20778;-67
2022/06/24 16:05:26;;;;;;;3.43;3.30;;;26.50;99.90;;;;;;4974630;28;20470;-67
2022/06/24 16:07:53;;;;;;;3.70;2.67;;;26.80;99.90;;;;;;4974604;28;20827;-67
2022/06/24 16:10:20;;;;;;;2.50;2.30;;;27.00;99.90;;;;;;4974144;28;20474;-67
2022/06/24 16:12:46;;;;;;;1.90;1.90;;;27.30;99.90;;;;;;4973817;28;20467;-67
2022/06/24 16:15:13;;;;;;;1.80;1.80;;;27.50;99.90;;;;;;4991215;23;20496;-70
2022/06/24 16:17:40;;;;;;;1.70;1.70;;;27.70;99.90;;;;;;4955020;29;20514;-69
2022/06/24 16:20:09;;;;;;;2.10;2.00;;;27.70;99.90;;;;;;4954510;29;20568;-70
2022/06/24 16:22:36;;;;;;;1.67;1.67;;;27.70;99.90;;;;;;4954815;28;20479;-70
2022/06/24 16:30:32;;;;;;;2.47;2.40;;;27.80;99.90;;;;;;4954908;29;20447;-71
2022/06/24 16:32:59;;;;;;;1.70;1.70;;;27.90;99.90;;;;;;4954336;29;20472;-72
2022/06/24 16:35:27;;;;;;;2.30;2.20;;;27.90;99.90;;;;;;4954698;28;20488;-72
2022/06/24 16:37:54;;;;;;;3.20;3.00;;;27.80;99.90;;;;;;4954871;29;20503;-72
2022/06/24 16:40:20;;;;;;;2.50;2.50;;;27.60;99.90;;;;;;4954921;29;20805;-72
2022/06/24 16:45:28;;;;;;;1.70;1.70;;;27.80;99.90;;;;;;4954278;28;20571;-71
2022/06/24 16:47:55;;;;;;;1.67;1.67;;;27.90;99.90;;;;;;4954062;28;20468;-72
2022/06/24 16:50:22;;;;;;;1.90;1.80;;;28.00;99.90;;;;;;4954277;29;20461;-72
2022/06/24 16:52:50;;;;;;;1.73;1.73;;;28.00;99.90;;;;;;4954507;29;20468;-71
2022/06/24 16:55:17;;;;;;;1.83;1.73;;;28.20;99.90;;;;;;4954035;28;20486;-71
2022/06/24 16:57:44;;;;;;;1.60;1.60;;;28.30;99.90;;;;;;4954066;29;20489;-71
2022/06/24 17:00:11;;;;;;;1.80;1.70;;;28.40;99.90;;;;;;4953970;28;21022;-71
2022/06/24 17:02:38;;;;;;;1.60;1.50;;;28.50;99.90;;;;;;4953972;28;20479;-71
2022/06/24 17:05:06;;;;;;;1.70;1.67;;;28.60;99.90;;;;;;4954043;28;20849;-70
2022/06/24 17:07:32;;;;;;;1.87;1.80;;;28.40;99.90;;;;;;4954209;29;20472;-70
2022/06/24 17:10:00;;;;;;;1.57;1.53;;;28.30;99.90;;;;;;4954147;29;20469;-70